Time;durP1;ratioP1;P1;durP2;ratioP2;P2;SDS_P1;SDS_P2;PMS_P1;PMS_P2;Temp;Humidity;BMP_temperature;BMP_pressure;BME280_temperature;BME280_humidity;BME280_pressure;Samples;Min_cycle;Max_cycle;Signal;HPM_P1;HPM_P2
2023/06/18 00:02:05;;;;;;;9.18;4.97;;;;;;;18.83;53.20;98943.44;4358901;32;34247;-85
2023/06/18 00:04:33;;;;;;;8.55;5.22;;;;;;;18.74;53.75;98948.03;4358892;32;33194;-85
2023/06/18 00:07:01;;;;;;;8.68;4.55;;;;;;;18.67;53.91;98948.13;4359283;32;33749;-87
2023/06/18 00:09:28;;;;;;;8.25;4.70;;;;;;;18.68;54.10;98938.53;4359061;32;33478;-87
2023/06/18 00:11:57;;;;;;;7.40;4.90;;;;;;;18.89;53.43;98942.41;4359241;32;34244;-87
2023/06/18 00:14:24;;;;;;;7.90;4.80;;;;;;;18.96;53.29;98936.09;4361369;32;32899;-87
2023/06/18 00:16:52;;;;;;;8.07;4.90;;;;;;;18.93;53.47;98936.16;4360288;32;34818;-83
2023/06/18 00:19:20;;;;;;;10.50;5.70;;;;;;;18.80;53.63;98938.25;4360272;32;34885;-87
2023/06/18 00:21:47;;;;;;;10.45;5.62;;;;;;;18.42;54.99;98937.34;4365564;32;33980;-84
2023/06/18 00:24:15;;;;;;;8.93;6.07;;;;;;;18.35;54.99;98929.66;4361062;32;33521;-85
2023/06/18 00:26:43;;;;;;;11.02;7.07;;;;;;;18.49;54.71;98930.22;4360522;32;33622;-88
2023/06/18 00:29:10;;;;;;;8.35;5.85;;;;;;;18.74;54.11;98932.28;4361109;32;35088;-83
2023/06/18 00:31:38;;;;;;;9.45;5.95;;;;;;;18.30;55.21;98928.91;4361056;32;34112;-83
2023/06/18 00:34:06;;;;;;;9.57;5.57;;;;;;;18.42;54.93;98933.87;4360820;32;34353;-84
2023/06/18 00:36:38;;;;;;;9.60;5.95;;;;;;;18.65;54.52;98935.97;4360888;32;34758;-83
2023/06/18 00:39:07;;;;;;;8.10;6.00;;;;;;;18.89;54.03;98940.63;4348105;32;34808;-87
2023/06/18 00:41:35;;;;;;;9.05;5.90;;;;;;;18.58;54.64;98927.34;4361231;32;34083;-83
2023/06/18 00:44:03;;;;;;;9.48;5.55;;;;;;;18.94;53.75;98928.28;4360989;32;34282;-86
2023/06/18 00:46:35;;;;;;;10.38;6.95;;;;;;;18.81;54.09;98939.09;4360918;32;33747;-86
2023/06/18 00:49:04;;;;;;;9.13;6.50;;;;;;;18.55;54.92;98935.28;4361029;32;34547;-85
2023/06/18 00:51:34;;;;;;;9.63;6.03;;;;;;;18.45;55.24;98942.53;4347507;32;34301;-85
2023/06/18 00:54:01;;;;;;;9.07;5.90;;;;;;;18.51;54.92;98940.66;4361120;32;33665;-87
2023/06/18 00:56:29;;;;;;;9.18;6.30;;;;;;;18.40;55.40;98939.13;4346977;32;33963;-84
2023/06/18 00:58:57;;;;;;;18.42;6.70;;;;;;;18.25;55.72;98931.59;4347095;32;35012;-85
2023/06/18 01:01:25;;;;;;;9.63;6.53;;;;;;;17.99;56.79;98938.28;4346910;32;34226;-84
2023/06/18 01:03:56;;;;;;;9.18;6.53;;;;;;;18.64;54.78;98926.37;4360438;32;34088;-86
2023/06/18 01:06:26;;;;;;;9.18;5.93;;;;;;;18.54;54.92;98932.72;4347904;32;33491;-85
2023/06/18 01:08:55;;;;;;;10.32;5.87;;;;;;;18.26;56.01;98933.34;4360613;32;34154;-86
2023/06/18 01:11:25;;;;;;;9.00;6.72;;;;;;;18.33;56.10;98941.94;4361182;32;34316;-86
2023/06/18 01:13:53;;;;;;;8.30;5.95;;;;;;;18.35;55.56;98932.28;4347693;32;34206;-86
2023/06/18 01:16:24;;;;;;;9.93;6.05;;;;;;;18.37;55.75;98936.59;4360849;32;34744;-85
2023/06/18 01:18:52;;;;;;;10.13;6.40;;;;;;;18.51;55.45;98936.28;4347239;32;34165;-86
2023/06/18 01:21:21;;;;;;;9.57;5.95;;;;;;;18.50;55.58;98939.81;4347477;32;33998;-85
2023/06/18 01:23:57;;;;;;;12.45;6.87;;;;;;;18.29;56.33;98938.50;4359865;32;34471;-84
2023/06/18 01:26:26;;;;;;;9.48;6.22;;;;;;;18.26;56.50;98935.97;4360308;32;34968;-84
2023/06/18 01:28:58;;;;;;;13.02;8.15;;;;;;;18.37;55.81;98933.97;4347045;32;35107;-84
2023/06/18 01:31:34;;;;;;;8.90;6.20;;;;;;;18.11;56.90;98936.31;4360140;32;34141;-86
2023/06/18 01:34:04;;;;;;;10.23;6.60;;;;;;;18.30;56.38;98937.62;4360497;32;33748;-84
2023/06/18 01:36:40;;;;;;;9.95;6.55;;;;;;;17.91;57.67;98944.56;4360975;32;34854;-84
2023/06/18 01:39:20;;;;;;;10.77;6.57;;;;;;;17.60;58.77;98946.91;4347384;32;34863;-86
2023/06/18 01:41:48;;;;;;;11.82;6.00;;;;;;;17.82;58.08;98944.78;4346750;32;34086;-85
2023/06/18 01:44:19;;;;;;;9.20;6.75;;;;;;;17.77;57.98;98951.84;4347125;32;33742;-86
2023/06/18 01:46:48;;;;;;;10.20;7.00;;;;;;;17.66;58.65;98945.03;4347284;32;33699;-86
2023/06/18 01:49:17;;;;;;;10.02;6.28;;;;;;;17.75;58.45;98957.13;4360354;32;34163;-85
2023/06/18 01:51:45;;;;;;;9.88;6.97;;;;;;;17.79;58.34;98955.31;4360178;32;33903;-86
2023/06/18 01:54:13;;;;;;;11.73;7.62;;;;;;;17.56;59.24;98953.09;4347369;32;33465;-86
2023/06/18 01:56:41;;;;;;;10.07;6.78;;;;;;;17.79;58.29;98956.19;4346894;32;32531;-86
2023/06/18 01:59:11;;;;;;;9.43;6.22;;;;;;;17.70;58.69;98951.09;4334428;32;35047;-82
2023/06/18 02:01:40;;;;;;;9.57;6.03;;;;;;;17.80;58.71;98960.53;4359391;32;34060;-84
2023/06/18 02:04:08;;;;;;;9.65;6.15;;;;;;;17.80;58.31;98957.91;4360456;32;33668;-85
2023/06/18 02:06:35;;;;;;;10.13;6.62;;;;;;;18.20;57.38;98957.09;4347370;32;33225;-83
2023/06/18 02:09:04;;;;;;;10.05;5.78;;;;;;;17.32;59.79;98959.69;4347103;32;34568;-84
2023/06/18 02:11:31;;;;;;;8.77;6.25;;;;;;;17.75;58.62;98965.00;4360275;32;35034;-83
2023/06/18 02:13:59;;;;;;;9.70;6.80;;;;;;;17.64;58.92;98961.69;4360461;32;33414;-87
2023/06/18 02:16:27;;;;;;;9.50;5.72;;;;;;;17.44;59.61;98965.53;4360739;32;33941;-86
2023/06/18 02:18:56;;;;;;;9.13;6.03;;;;;;;17.72;58.73;98962.41;4360198;32;34212;-85
2023/06/18 02:21:24;;;;;;;10.85;6.72;;;;;;;17.57;59.33;98967.94;4360239;32;34374;-83
2023/06/18 02:23:54;;;;;;;10.93;6.62;;;;;;;17.34;60.03;98969.22;4360437;32;34030;-83
2023/06/18 02:26:21;;;;;;;8.65;6.15;;;;;;;17.00;61.23;98961.06;4359892;32;34792;-86
2023/06/18 02:28:49;;;;;;;9.00;5.97;;;;;;;17.32;60.36;98963.16;4361594;32;33317;-85
2023/06/18 02:31:16;;;;;;;9.40;6.65;;;;;;;17.52;59.46;98968.88;4346568;32;33925;-82
2023/06/18 02:33:44;;;;;;;10.15;7.00;;;;;;;17.22;60.44;98975.53;4359989;32;34596;-85
2023/06/18 02:36:13;;;;;;;10.50;7.15;;;;;;;17.31;60.17;98971.87;4347162;32;33939;-87
2023/06/18 02:38:41;;;;;;;12.73;6.18;;;;;;;17.31;60.25;98971.87;4346733;32;33784;-87
2023/06/18 02:41:08;;;;;;;9.50;6.45;;;;;;;17.47;59.79;98980.37;4346723;32;34263;-87
2023/06/18 02:43:36;;;;;;;9.63;7.25;;;;;;;17.75;58.87;98981.59;4360059;32;33754;-85
2023/06/18 02:46:04;;;;;;;9.63;6.57;;;;;;;17.44;59.78;98981.28;4360668;32;33696;-87
2023/06/18 02:48:32;;;;;;;9.77;6.25;;;;;;;17.51;59.69;98982.91;4346470;32;35029;-87
2023/06/18 02:50:59;;;;;;;8.75;6.50;;;;;;;17.78;58.86;98985.06;4359899;32;33995;-86
2023/06/18 02:53:26;;;;;;;9.65;6.70;;;;;;;17.65;59.25;98984.38;4345529;33;33185;-88
2023/06/18 02:55:55;;;;;;;8.50;6.10;;;;;;;17.41;60.15;98994.44;4345458;33;33637;-84
2023/06/18 02:58:29;;;;;;;11.40;7.28;;;;;;;17.29;60.51;98996.41;4355383;32;34197;-88
2023/06/18 03:00:59;;;;;;;10.27;6.60;;;;;;;17.03;61.28;98995.94;4359832;32;35226;-85
2023/06/18 03:03:27;;;;;;;8.65;6.65;;;;;;;17.14;61.09;99000.13;4346944;32;33460;-86
2023/06/18 03:05:55;;;;;;;10.13;6.93;;;;;;;17.31;60.55;99000.72;4360537;32;33801;-87
2023/06/18 03:08:23;;;;;;;10.77;6.78;;;;;;;17.16;61.09;99001.84;4359976;32;35020;-87
2023/06/18 03:10:51;;;;;;;9.25;6.82;;;;;;;17.38;60.27;99002.34;4347026;32;34895;-84
2023/06/18 03:13:18;;;;;;;10.15;6.30;;;;;;;17.18;60.82;99000.06;4359657;32;34652;-84
2023/06/18 03:15:47;;;;;;;12.32;7.28;;;;;;;17.12;61.01;98999.28;4359864;32;34950;-84
2023/06/18 03:18:15;;;;;;;9.57;6.35;;;;;;;17.43;60.14;99005.75;4346623;32;34566;-87
2023/06/18 03:20:42;;;;;;;8.88;6.40;;;;;;;17.44;60.18;98997.00;4346326;32;34076;-86
2023/06/18 03:23:10;;;;;;;9.38;6.32;;;;;;;17.56;59.60;99005.53;4345961;32;33784;-86
2023/06/18 03:25:38;;;;;;;8.85;6.50;;;;;;;17.15;61.15;99001.87;4345986;32;33397;-84
2023/06/18 03:28:07;;;;;;;11.73;7.22;;;;;;;17.45;60.27;99006.59;4360023;32;34212;-85
2023/06/18 03:30:36;;;;;;;10.20;5.68;;;;;;;17.78;59.42;99006.03;4359973;32;34091;-84
2023/06/18 03:33:04;;;;;;;9.38;6.40;;;;;;;17.83;59.19;99005.03;4359699;32;34104;-84
2023/06/18 03:35:32;;;;;;;9.50;6.40;;;;;;;18.10;58.56;99010.63;4359739;32;34542;-86
2023/06/18 03:38:00;;;;;;;7.87;5.37;;;;;;;17.97;58.76;99008.28;4346419;32;35011;-87
2023/06/18 03:40:28;;;;;;;8.05;5.60;;;;;;;18.52;56.82;99001.00;4360037;32;34330;-87
2023/06/18 03:42:55;;;;;;;10.20;6.47;;;;;;;18.45;57.64;99008.16;4346142;32;33737;-84
2023/06/18 03:45:25;;;;;;;8.48;6.30;;;;;;;18.39;57.70;99010.91;4359685;32;34900;-83
2023/06/18 03:47:53;;;;;;;8.43;5.47;;;;;;;18.37;57.34;99011.81;4347469;32;34410;-86
2023/06/18 03:50:20;;;;;;;8.13;5.65;;;;;;;18.94;56.65;99006.19;4361849;32;34241;-87
2023/06/18 03:52:49;;;;;;;9.77;6.18;;;;;;;19.00;56.04;99000.81;4361344;32;34132;-86
2023/06/18 03:55:17;;;;;;;8.43;5.37;;;;;;;19.24;55.20;99007.22;4361423;32;34031;-86
2023/06/18 03:57:44;;;;;;;9.00;5.45;;;;;;;19.45;54.50;99008.44;4348062;32;33142;-87
2023/06/18 04:00:12;;;;;;;8.45;5.68;;;;;;;19.51;54.27;99004.78;4361525;32;34286;-87
2023/06/18 04:02:40;;;;;;;7.95;5.80;;;;;;;19.87;53.08;98998.56;4360869;32;34892;-87
2023/06/18 04:05:10;;;;;;;7.37;5.50;;;;;;;20.09;52.58;99001.47;4361460;32;34056;-85
2023/06/18 04:07:38;;;;;;;11.65;5.87;;;;;;;20.24;52.37;99007.22;4361488;32;34641;-83
2023/06/18 04:10:06;;;;;;;8.05;5.72;;;;;;;20.22;52.84;99007.25;4361525;32;35166;-84
2023/06/18 04:12:34;;;;;;;10.05;5.00;;;;;;;20.07;52.53;99005.03;4360976;32;33750;-86
2023/06/18 04:15:02;;;;;;;10.88;5.40;;;;;;;20.09;52.99;99009.38;4361415;32;34781;-87
2023/06/18 04:17:39;;;;;;;9.57;5.68;;;;;;;19.97;52.85;99007.09;4361609;32;33452;-87
2023/06/18 04:20:08;;;;;;;7.37;5.32;;;;;;;20.31;52.57;99014.03;4348172;32;34603;-83
2023/06/18 04:22:36;;;;;;;8.10;5.10;;;;;;;20.30;52.38;99017.53;4347350;32;33558;-83
2023/06/18 04:25:05;;;;;;;8.88;5.25;;;;;;;20.45;52.06;99019.72;4361198;32;33567;-83
2023/06/18 04:27:33;;;;;;;9.15;5.55;;;;;;;20.52;52.21;99021.31;4361293;32;34091;-87
2023/06/18 04:30:01;;;;;;;6.90;4.80;;;;;;;20.31;52.33;99019.28;4361651;32;34989;-83
2023/06/18 04:32:30;;;;;;;7.97;5.12;;;;;;;20.93;50.86;99019.19;4361033;32;34544;-85
2023/06/18 04:34:58;;;;;;;9.38;5.30;;;;;;;20.79;51.29;99013.47;4361087;32;33404;-86
2023/06/18 04:37:26;;;;;;;7.45;5.10;;;;;;;21.07;50.70;99014.34;4361386;32;34526;-83
2023/06/18 04:39:53;;;;;;;9.35;5.07;;;;;;;21.32;50.03;99019.66;4361228;32;33642;-83
2023/06/18 04:42:21;;;;;;;9.68;5.50;;;;;;;21.79;48.42;99022.47;4361030;32;33705;-86
2023/06/18 04:44:48;;;;;;;8.20;5.18;;;;;;;21.84;48.45;99014.41;4347219;32;33798;-84
2023/06/18 04:47:16;;;;;;;7.85;5.10;;;;;;;22.05;48.25;99020.69;4361242;32;33804;-84
2023/06/18 04:49:44;;;;;;;11.10;5.12;;;;;;;22.01;48.44;99033.16;4361123;32;34057;-84
2023/06/18 04:52:12;;;;;;;10.57;5.28;;;;;;;22.12;47.84;99030.09;4361086;32;33029;-86
2023/06/18 04:54:41;;;;;;;7.50;4.95;;;;;;;21.92;48.50;99027.31;4362458;32;33953;-84
2023/06/18 04:57:11;;;;;;;8.35;4.62;;;;;;;21.70;49.67;99027.22;4362467;32;34098;-86
2023/06/18 04:59:39;;;;;;;7.93;4.82;;;;;;;20.87;51.31;99035.16;4375962;32;34932;-86
2023/06/18 05:02:08;;;;;;;7.30;5.18;;;;;;;21.83;49.21;99033.78;4357003;32;33669;-87
2023/06/18 05:04:36;;;;;;;8.38;5.37;;;;;;;22.13;47.74;99037.12;4347220;32;34664;-87
2023/06/18 05:07:03;;;;;;;7.45;4.68;;;;;;;21.68;49.23;99044.88;4335454;32;34062;-86
2023/06/18 05:09:32;;;;;;;8.57;4.60;;;;;;;21.81;48.35;99040.87;4360613;32;34129;-85
2023/06/18 05:11:59;;;;;;;7.47;4.57;;;;;;;20.96;50.49;99041.94;4360825;32;33287;-84
2023/06/18 05:14:28;;;;;;;9.80;4.80;;;;;;;21.84;48.80;99046.94;4347633;32;33795;-86
2023/06/18 05:16:56;;;;;;;6.78;4.37;;;;;;;21.74;49.04;99056.06;4360662;32;35103;-87
2023/06/18 05:19:24;;;;;;;7.07;5.20;;;;;;;21.18;50.18;99056.16;4361175;32;34998;-83
2023/06/18 05:21:51;;;;;;;6.82;4.90;;;;;;;21.53;49.43;99056.81;4360902;32;32604;-87
2023/06/18 05:24:20;;;;;;;7.40;4.90;;;;;;;22.06;48.21;99057.59;4346844;32;33764;-87
2023/06/18 05:26:47;;;;;;;7.43;4.47;;;;;;;21.88;48.32;99066.16;4360828;32;35120;-84
2023/06/18 05:29:16;;;;;;;9.82;4.30;;;;;;;21.84;48.80;99062.75;4360681;32;34035;-86
2023/06/18 05:31:44;;;;;;;7.68;4.62;;;;;;;22.34;47.80;99068.03;4361077;32;33756;-82
2023/06/18 05:34:13;;;;;;;8.65;4.78;;;;;;;22.49;46.96;99063.97;4360712;32;33961;-84
2023/06/18 05:36:43;;;;;;;7.35;4.62;;;;;;;22.53;46.75;99065.56;4360474;32;33743;-85
2023/06/18 05:39:11;;;;;;;8.57;4.82;;;;;;;22.43;47.34;99068.66;4360765;32;34778;-85
2023/06/18 05:41:39;;;;;;;10.30;4.95;;;;;;;22.57;47.48;99066.31;4347167;32;34326;-86
2023/06/18 05:44:06;;;;;;;7.65;4.45;;;;;;;22.82;46.64;99079.47;4360577;32;34066;-85
2023/06/18 05:46:34;;;;;;;8.63;4.70;;;;;;;22.36;47.73;99075.06;4360744;32;33754;-86
2023/06/18 05:49:02;;;;;;;8.90;4.50;;;;;;;22.73;47.12;99085.97;4360758;32;34928;-83
2023/06/18 05:51:29;;;;;;;7.78;4.55;;;;;;;22.85;47.12;99068.78;4360514;32;33343;-83
2023/06/18 05:53:57;;;;;;;8.10;3.75;;;;;;;22.82;47.45;99080.34;4360981;32;34904;-82
2023/06/18 05:56:25;;;;;;;6.68;4.43;;;;;;;23.40;46.81;99076.31;4346240;32;33451;-84
2023/06/18 05:58:54;;;;;;;6.85;4.50;;;;;;;23.50;46.04;99077.69;4347031;32;34536;-81
2023/06/18 06:01:22;;;;;;;7.07;4.30;;;;;;;23.33;46.74;99075.72;4360975;32;33605;-82
2023/06/18 06:03:49;;;;;;;7.05;4.10;;;;;;;23.82;45.62;99080.78;4360849;32;34100;-84
2023/06/18 06:06:17;;;;;;;7.32;3.95;;;;;;;24.11;45.22;99074.22;4360217;32;35010;-84
2023/06/18 06:08:46;;;;;;;8.13;4.15;;;;;;;24.21;44.88;99080.84;4347713;32;34203;-86
2023/06/18 06:11:14;;;;;;;7.43;4.25;;;;;;;23.74;45.48;99089.91;4360338;32;34553;-83
2023/06/18 06:13:42;;;;;;;7.20;4.35;;;;;;;24.15;43.90;99083.75;4360849;32;34684;-81
2023/06/18 06:16:09;;;;;;;7.55;3.90;;;;;;;24.32;43.65;99085.66;4360364;32;35585;-85
2023/06/18 06:18:37;;;;;;;6.97;4.00;;;;;;;24.20;43.65;99085.25;4360697;32;35003;-85
2023/06/18 06:21:05;;;;;;;6.43;4.43;;;;;;;23.74;44.93;99087.25;4354139;32;204063;-85
2023/06/18 06:23:32;;;;;;;7.90;4.85;;;;;;;23.74;43.72;99087.25;4360475;32;34809;-84
2023/06/18 06:26:00;;;;;;;7.22;4.43;;;;;;;23.73;44.18;99085.53;4359763;32;34301;-81
2023/06/18 06:28:28;;;;;;;6.72;4.20;;;;;;;23.65;44.33;99082.31;4360558;32;34678;-85
2023/06/18 06:30:55;;;;;;;7.15;4.22;;;;;;;24.12;43.47;99086.53;4360366;32;34545;-84
2023/06/18 06:33:23;;;;;;;7.25;3.90;;;;;;;23.85;44.29;99088.59;4360396;32;34273;-85
2023/06/18 06:35:52;;;;;;;8.63;4.80;;;;;;;24.26;44.13;99092.94;4360003;32;33872;-83
2023/06/18 06:38:21;;;;;;;7.32;4.37;;;;;;;24.11;44.58;99090.97;4360197;32;34126;-84
2023/06/18 06:40:48;;;;;;;7.72;4.40;;;;;;;24.06;44.68;99095.63;4360183;32;33828;-83
2023/06/18 06:43:16;;;;;;;9.07;4.97;;;;;;;24.69;43.70;99095.47;4359820;32;33061;-83
2023/06/18 06:45:46;;;;;;;9.05;4.32;;;;;;;24.93;44.45;99096.16;4360681;32;35068;-83
2023/06/18 06:48:13;;;;;;;7.82;4.68;;;;;;;25.02;43.15;99098.34;4360699;32;34404;-84
2023/06/18 06:50:42;;;;;;;6.50;4.00;;;;;;;25.16;41.71;99095.09;4359562;32;33208;-86
2023/06/18 06:53:10;;;;;;;9.45;4.50;;;;;;;25.68;41.53;99096.06;4346651;32;34700;-82
2023/06/18 06:55:38;;;;;;;6.85;4.12;;;;;;;25.23;41.63;99097.38;4332171;33;34170;-82
2023/06/18 06:58:07;;;;;;;8.85;4.30;;;;;;;25.00;43.19;99094.91;4345685;33;34842;-83
2023/06/18 07:00:35;;;;;;;6.55;4.20;;;;;;;24.25;43.74;99088.59;4335720;32;33779;-85
2023/06/18 07:03:03;;;;;;;6.22;4.18;;;;;;;25.07;41.83;99090.19;4359843;32;34011;-84
2023/06/18 07:05:30;;;;;;;9.38;4.30;;;;;;;24.41;42.92;99095.88;4346589;32;33838;-84
2023/06/18 07:07:58;;;;;;;6.40;4.18;;;;;;;24.44;42.60;99099.25;4359624;32;33595;-82
2023/06/18 07:10:26;;;;;;;6.78;4.20;;;;;;;24.78;44.05;99094.22;4346203;32;33725;-85
2023/06/18 07:12:53;;;;;;;5.97;3.80;;;;;;;25.17;43.05;99092.34;4360130;32;34134;-85
2023/06/18 07:15:20;;;;;;;7.47;4.37;;;;;;;25.12;42.73;99096.19;4360074;32;34351;-84
2023/06/18 07:17:48;;;;;;;6.22;3.62;;;;;;;25.19;40.75;99084.31;4358914;32;34540;-80
2023/06/18 07:20:16;;;;;;;7.07;4.18;;;;;;;24.86;42.10;99090.28;4358526;32;34411;-81
2023/06/18 07:22:43;;;;;;;7.05;3.72;;;;;;;25.78;41.29;99091.16;4356941;32;34069;-82
2023/06/18 07:25:11;;;;;;;6.28;4.18;;;;;;;25.41;40.94;99087.63;4357074;32;33762;-85
2023/06/18 07:27:38;;;;;;;7.20;3.87;;;;;;;25.39;41.16;99080.72;4359659;32;34365;-79
2023/06/18 07:30:07;;;;;;;5.80;3.45;;;;;;;25.35;39.52;99081.78;4359876;32;33433;-86
2023/06/18 07:32:34;;;;;;;7.62;3.75;;;;;;;24.81;39.60;99083.44;4359739;32;33915;-80
2023/06/18 07:35:02;;;;;;;8.27;3.42;;;;;;;25.14;41.00;99086.34;4360427;32;34159;-84
2023/06/18 07:37:29;;;;;;;7.50;4.37;;;;;;;25.18;39.61;99080.78;4373282;32;33851;-82
2023/06/18 07:39:57;;;;;;;6.93;3.67;;;;;;;25.10;41.41;99075.00;4361067;32;33651;-85
2023/06/18 07:42:25;;;;;;;6.32;3.90;;;;;;;25.38;41.06;99079.84;4366891;32;33730;-82
2023/06/18 07:44:52;;;;;;;6.50;3.78;;;;;;;25.00;42.48;99081.63;4355528;32;35038;-85
2023/06/18 07:47:20;;;;;;;6.97;3.83;;;;;;;25.31;41.08;99081.09;4341731;32;35140;-90
2023/06/18 07:49:48;;;;;;;5.80;3.12;;;;;;;24.75;40.20;99082.81;4337721;32;33334;-86
2023/06/18 07:52:16;;;;;;;6.32;2.90;;;;;;;25.19;39.72;99071.94;4355711;32;33655;-83
2023/06/18 07:54:44;;;;;;;6.25;3.00;;;;;;;24.88;39.39;99071.63;4344546;32;34255;-87
2023/06/18 07:57:12;;;;;;;8.32;3.10;;;;;;;24.93;38.63;99072.28;4356621;32;34281;-87
2023/06/18 07:59:39;;;;;;;5.70;3.12;;;;;;;25.49;37.91;99076.63;4343470;32;34372;-86
2023/06/18 08:02:07;;;;;;;5.72;3.05;;;;;;;25.14;37.81;99073.94;4357709;32;34402;-86
2023/06/18 08:04:35;;;;;;;5.72;3.30;;;;;;;25.19;38.02;99074.59;4355369;32;34171;-85
2023/06/18 08:07:03;;;;;;;4.62;2.83;;;;;;;25.66;38.46;99076.66;4356802;32;34313;-90
2023/06/18 08:09:30;;;;;;;5.35;2.95;;;;;;;25.50;37.59;99066.91;4357689;32;33738;-86
2023/06/18 08:11:58;;;;;;;6.20;2.92;;;;;;;25.72;36.74;99076.38;4358687;32;34007;-87
2023/06/18 08:14:27;;;;;;;4.82;2.80;;;;;;;25.64;37.08;99072.34;4356866;32;34152;-87
2023/06/18 08:16:54;;;;;;;4.65;2.67;;;;;;;25.09;36.80;99069.75;4339200;32;34213;-86
2023/06/18 08:19:22;;;;;;;6.05;2.33;;;;;;;25.34;37.26;99082.69;4343828;32;33868;-80
2023/06/18 08:21:51;;;;;;;4.82;2.60;;;;;;;25.46;38.45;99069.72;4356575;32;34719;-87
2023/06/18 08:24:18;;;;;;;6.28;2.80;;;;;;;25.92;36.91;99077.19;4344210;32;34247;-82
2023/06/18 08:26:46;;;;;;;4.87;2.50;;;;;;;25.94;36.53;99070.81;4358798;32;34241;-84
2023/06/18 08:29:15;;;;;;;6.15;2.53;;;;;;;25.82;37.67;99073.25;4345100;32;34759;-89
2023/06/18 08:31:42;;;;;;;5.57;2.62;;;;;;;26.44;35.13;99069.97;4357257;32;35042;-84
2023/06/18 08:34:11;;;;;;;6.28;3.25;;;;;;;26.44;34.67;99069.09;4360238;32;34263;-81
2023/06/18 08:36:40;;;;;;;6.32;3.15;;;;;;;26.07;36.41;99075.53;4347618;32;34981;-82
2023/06/18 08:39:07;;;;;;;5.10;2.55;;;;;;;25.90;35.88;99069.28;4361306;32;34529;-82
2023/06/18 08:41:35;;;;;;;5.20;2.45;;;;;;;26.04;34.29;99065.91;4359674;32;34654;-86
2023/06/18 08:44:03;;;;;;;4.72;2.37;;;;;;;25.95;34.21;99063.75;4348382;32;35065;-87
2023/06/18 08:46:35;;;;;;;8.00;2.50;;;;;;;25.98;36.12;99065.34;4360835;32;34528;-82
2023/06/18 08:49:02;;;;;;;5.43;2.70;;;;;;;26.14;35.49;99066.31;4360263;32;33371;-83
2023/06/18 08:51:30;;;;;;;6.47;2.28;;;;;;;26.51;35.79;99065.19;4346516;32;34623;-86
2023/06/18 08:54:05;;;;;;;5.60;2.78;;;;;;;26.71;34.57;99065.91;4342114;32;33922;-82
2023/06/18 08:56:36;;;;;;;4.62;2.33;;;;;;;26.58;36.26;99065.72;4347643;32;35050;-86
2023/06/18 08:59:03;;;;;;;5.05;2.45;;;;;;;26.74;34.39;99071.06;4360698;32;33545;-86
2023/06/18 09:01:31;;;;;;;6.20;2.72;;;;;;;27.02;35.32;99057.09;4359893;32;33988;-88
2023/06/18 09:03:59;;;;;;;4.57;2.70;;;;;;;26.72;35.00;99073.81;4346765;32;33749;-87
2023/06/18 09:06:29;;;;;;;4.80;2.60;;;;;;;27.09;35.01;99059.34;4360379;32;34916;-82
2023/06/18 09:09:00;;;;;;;5.30;2.53;;;;;;;26.90;34.16;99063.97;4361128;32;33799;-83
2023/06/18 09:11:28;;;;;;;5.45;2.83;;;;;;;27.48;33.68;99059.81;4360168;32;35036;-82
2023/06/18 09:14:01;;;;;;;4.93;2.22;;;;;;;27.49;34.17;99059.72;4360936;32;34183;-85
2023/06/18 09:16:29;;;;;;;6.07;2.40;;;;;;;27.38;35.18;99056.81;4347071;32;34867;-84
2023/06/18 09:18:56;;;;;;;5.10;3.22;;;;;;;27.27;34.92;99064.56;4360467;32;35288;-84
2023/06/18 09:21:32;;;;;;;5.12;2.58;;;;;;;26.52;32.92;99066.06;4347327;32;34502;-87
2023/06/18 09:24:00;;;;;;;7.05;2.62;;;;;;;27.30;32.82;99062.59;4347259;32;34148;-87
2023/06/18 09:26:33;;;;;;;4.90;2.37;;;;;;;27.47;32.63;99056.31;4347320;32;34363;-82
2023/06/18 09:29:05;;;;;;;5.45;3.00;;;;;;;27.29;33.62;99065.34;4360133;32;32953;-83
2023/06/18 09:31:36;;;;;;;5.25;2.62;;;;;;;27.30;31.57;99059.94;4347226;32;33279;-83
2023/06/18 09:34:15;;;;;;;5.22;3.00;;;;;;;27.43;32.83;99070.75;4360744;32;33774;-84
2023/06/18 09:36:43;;;;;;;9.35;3.50;;;;;;;27.63;31.95;99065.09;4346856;32;34819;-85
2023/06/18 09:39:15;;;;;;;6.03;2.80;;;;;;;27.63;33.22;99067.78;4346945;32;33531;-87
2023/06/18 09:41:44;;;;;;;4.53;2.60;;;;;;;27.85;33.70;99063.87;4347124;32;33410;-81
2023/06/18 09:44:18;;;;;;;6.15;3.05;;;;;;;27.13;32.14;99066.22;4346665;32;34325;-83
2023/06/18 09:46:58;;;;;;;5.07;2.95;;;;;;;27.46;31.78;99069.69;4334410;32;34360;-83
2023/06/18 09:49:27;;;;;;;6.35;3.10;;;;;;;27.55;31.75;99059.38;4335832;32;33776;-81
2023/06/18 09:51:55;;;;;;;5.03;2.92;;;;;;;27.25;33.79;99071.81;4347082;32;32514;-82
2023/06/18 09:54:22;;;;;;;5.75;2.78;;;;;;;27.24;32.96;99059.41;4347218;32;34141;-83
2023/06/18 09:57:02;;;;;;;6.90;2.80;;;;;;;27.26;32.66;99057.53;4346800;32;33841;-84
2023/06/18 09:59:31;;;;;;;5.25;2.80;;;;;;;27.48;33.66;99058.00;4356316;32;33227;-86
2023/06/18 10:01:58;;;;;;;5.32;2.70;;;;;;;28.10;30.91;99069.41;4346557;32;33990;-83
2023/06/18 10:04:27;;;;;;;9.20;3.05;;;;;;;28.09;32.50;99075.72;4360616;32;34954;-83
2023/06/18 10:06:58;;;;;;;6.95;3.20;;;;;;;28.12;30.44;99061.34;4347327;32;34816;-83
2023/06/18 10:09:32;;;;;;;5.00;3.00;;;;;;;27.98;30.30;99070.16;4334973;32;33801;-80
2023/06/18 10:12:01;;;;;;;5.15;2.92;;;;;;;28.11;30.70;99064.97;4345098;32;34629;-88
2023/06/18 10:14:30;;;;;;;6.30;2.90;;;;;;;28.47;30.82;99061.00;4347032;32;34177;-89
2023/06/18 10:17:23;;;;;;;5.45;2.87;;;;;;;28.10;29.17;99061.41;4359442;32;33492;-81
2023/06/18 10:20:07;;;;;;;7.53;3.00;;;;;;;28.39;28.37;99061.50;4351033;32;32801;-84
2023/06/18 10:22:45;;;;;;;5.20;2.70;;;;;;;28.17;30.24;99063.72;4353051;32;34483;-94
2023/06/18 10:25:13;;;;;;;9.40;2.95;;;;;;;27.78;30.32;99066.03;4361489;32;35145;-90
2023/06/18 10:27:41;;;;;;;7.40;2.80;;;;;;;28.00;29.62;99070.94;4356014;32;33946;-85
2023/06/18 10:30:10;;;;;;;4.93;2.70;;;;;;;28.32;31.62;99062.78;4330579;32;32970;-89
2023/06/18 10:32:39;;;;;;;6.82;3.65;;;;;;;28.05;28.89;99063.53;4360071;32;33936;-90
2023/06/18 10:35:08;;;;;;;6.50;2.90;;;;;;;28.36;28.67;99065.16;4360365;32;34143;-85
2023/06/18 10:37:36;;;;;;;9.68;3.40;;;;;;;28.33;29.93;99062.69;4334663;32;33818;-88
2023/06/18 10:40:05;;;;;;;5.70;3.30;;;;;;;28.31;31.33;99061.06;4351613;32;34282;-83
2023/06/18 10:42:34;;;;;;;6.60;3.10;;;;;;;28.16;33.05;99064.69;4367471;32;33755;-87
2023/06/18 10:45:10;;;;;;;5.53;3.03;;;;;;;27.43;31.47;99065.44;4357040;32;34146;-85
2023/06/18 10:47:38;;;;;;;6.57;3.40;;;;;;;27.93;30.84;99066.94;4358564;32;34188;-86
2023/06/18 10:50:06;;;;;;;5.15;3.00;;;;;;;28.10;30.79;99066.75;4346379;32;33603;-87
2023/06/18 10:52:51;;;;;;;;;;;;;;;27.92;31.07;99061.69;4353297;32;35086;-82
2023/06/18 10:55:22;;;;;;;6.45;3.45;;;;;;;28.00;30.54;99064.75;4359472;32;34346;-87
2023/06/18 10:58:01;;;;;;;4.90;3.12;;;;;;;27.57;31.54;99060.12;4357600;32;32698;-84
2023/06/18 11:00:36;;;;;;;6.25;2.85;;;;;;;27.98;29.07;99054.19;4333445;32;33292;-83
2023/06/18 11:03:05;;;;;;;5.57;3.03;;;;;;;28.09;33.07;99062.38;4359445;32;34921;-82
2023/06/18 11:05:49;;;;;;;10.05;3.33;;;;;;;28.26;31.06;99056.03;4360930;32;35118;-83
2023/06/18 11:08:26;;;;;;;6.07;3.47;;;;;;;28.33;28.57;99060.00;4364334;32;35122;-83
2023/06/18 11:11:07;;;;;;;4.85;3.10;;;;;;;28.63;30.90;99059.09;4353419;32;32678;-81
2023/06/18 11:13:37;;;;;;;8.00;3.53;;;;;;;28.67;29.24;99063.28;4343368;32;33891;-82
2023/06/18 11:16:05;;;;;;;5.43;3.08;;;;;;;28.55;30.83;99061.38;4345951;32;34328;-83
2023/06/18 11:18:34;;;;;;;5.20;3.20;;;;;;;28.68;29.83;99056.13;4358158;32;34806;-91
2023/06/18 11:21:03;;;;;;;6.15;3.42;;;;;;;28.27;32.71;99054.22;4333516;32;34135;-83
2023/06/18 11:23:32;;;;;;;6.82;2.92;;;;;;;27.99;31.38;99053.22;4358855;32;34835;-81
2023/06/18 11:26:01;;;;;;;6.15;3.15;;;;;;;27.97;32.76;99052.47;4351621;32;33421;-89
2023/06/18 11:28:30;;;;;;;5.82;3.03;;;;;;;28.30;31.67;99051.38;4321622;32;33737;-81
2023/06/18 11:30:59;;;;;;;6.47;3.58;;;;;;;28.36;31.98;99051.81;4359765;32;34442;-81
2023/06/18 11:33:29;;;;;;;6.53;3.70;;;;;;;28.62;31.20;99039.56;4336212;32;33413;-90
2023/06/18 11:36:13;;;;;;;5.68;3.35;;;;;;;28.72;31.09;99031.00;4372588;32;34192;-82
2023/06/18 11:38:47;;;;;;;6.62;3.50;;;;;;;28.82;31.49;99038.28;4363000;32;34327;-80
2023/06/18 11:41:22;;;;;;;5.97;3.37;;;;;;;29.19;31.41;99035.06;4340854;32;33731;-81